Time;durP1;ratioP1;P1;durP2;ratioP2;P2;SDS_P1;SDS_P2;PMS_P1;PMS_P2;Temp;Humidity;BMP_temperature;BMP_pressure;BME280_temperature;BME280_humidity;BME280_pressure;Samples;Min_cycle;Max_cycle;Signal;HPM_P1;HPM_P2
2021/08/02 00:00:15;;;;;;;28.33;23.70;;;21.60;95.40;;;;;;5062800;28;20560;-90
2021/08/02 00:02:50;;;;;;;27.55;24.02;;;21.70;95.30;;;;;;5055816;28;20044;-90
2021/08/02 00:05:17;;;;;;;28.45;24.23;;;21.70;95.40;;;;;;5055724;28;20017;-90
2021/08/02 00:07:48;;;;;;;26.73;24.23;;;21.70;95.50;;;;;;5055735;28;20036;-90
2021/08/02 00:10:16;;;;;;;26.77;22.75;;;21.70;95.60;;;;;;5056176;28;20014;-91
2021/08/02 00:12:49;;;;;;;25.40;22.92;;;21.60;95.60;;;;;;5038422;28;20032;-90
2021/08/02 00:15:19;;;;;;;25.65;23.08;;;21.60;95.70;;;;;;5056327;28;20024;-91
2021/08/02 00:17:48;;;;;;;25.33;22.85;;;21.60;95.90;;;;;;5056080;28;20107;-90
2021/08/02 00:20:18;;;;;;;25.40;22.25;;;21.50;96.00;;;;;;5058748;28;20013;-89
2021/08/02 00:22:45;;;;;;;26.98;24.35;;;21.50;96.20;;;;;;5057919;28;20052;-91
2021/08/02 00:25:12;;;;;;;26.13;23.63;;;21.40;96.50;;;;;;5039418;28;20024;-91
2021/08/02 00:27:38;;;;;;;26.85;24.38;;;21.40;96.70;;;;;;5038526;28;20025;-89
2021/08/02 00:30:06;;;;;;;27.10;24.55;;;21.40;96.90;;;;;;5058724;28;20032;-90
2021/08/02 00:32:33;;;;;;;27.23;24.77;;;21.40;97.10;;;;;;5043861;28;20033;-90
2021/08/02 00:35:01;;;;;;;26.52;24.00;;;21.40;97.20;;;;;;5038036;28;20486;-89
2021/08/02 00:37:51;;;;;;;24.67;22.17;;;21.50;97.10;;;;;;5055676;28;20032;-89
2021/08/02 00:40:42;;;;;;;25.33;22.60;;;21.50;96.80;;;;;;5054967;28;20025;-87
2021/08/02 00:43:17;;;;;;;26.42;23.73;;;21.60;96.70;;;;;;5063174;28;20096;-85
2021/08/02 00:45:45;;;;;;;26.20;23.52;;;21.60;96.70;;;;;;5048265;28;20148;-89
2021/08/02 00:48:16;;;;;;;24.50;22.10;;;21.60;96.60;;;;;;5063538;28;20021;-89
2021/08/02 00:50:46;;;;;;;25.38;22.88;;;21.70;96.50;;;;;;5050469;28;20578;-88
2021/08/02 00:53:21;;;;;;;24.77;22.25;;;21.70;96.40;;;;;;5066677;28;20360;-90
2021/08/02 00:55:56;;;;;;;26.52;23.83;;;21.70;96.20;;;;;;5058120;28;20044;-89
2021/08/02 00:58:24;;;;;;;26.75;23.23;;;21.60;96.20;;;;;;5037337;28;20391;-93
2021/08/02 01:00:54;;;;;;;28.75;23.25;;;21.50;96.40;;;;;;5055470;28;20021;-90
2021/08/02 01:03:20;;;;;;;27.30;24.70;;;21.40;96.60;;;;;;5058794;28;20035;-92
2021/08/02 01:05:50;;;;;;;26.60;24.00;;;21.40;96.80;;;;;;5055236;28;20423;-91
2021/08/02 01:08:23;;;;;;;25.70;23.20;;;21.30;97.00;;;;;;5054991;28;20032;-90
2021/08/02 01:10:55;;;;;;;27.08;24.08;;;21.30;97.20;;;;;;5058287;28;20021;-90
2021/08/02 01:13:24;;;;;;;26.95;24.38;;;21.30;97.40;;;;;;5052617;28;20550;-90
2021/08/02 01:15:54;;;;;;;26.45;23.60;;;21.20;97.60;;;;;;5050605;28;20017;-89
2021/08/02 01:18:22;;;;;;;25.65;22.73;;;21.20;97.70;;;;;;5064495;28;20497;-89
2021/08/02 01:20:53;;;;;;;27.80;24.90;;;21.20;97.80;;;;;;5075043;28;20136;-89
2021/08/02 01:23:21;;;;;;;27.65;24.95;;;21.20;97.90;;;;;;5056057;28;20072;-90
2021/08/02 01:25:56;;;;;;;28.20;25.45;;;21.10;98.20;;;;;;5056198;28;20422;-89
2021/08/02 01:28:22;;;;;;;28.10;25.30;;;21.10;98.10;;;;;;5050491;28;20022;-89
2021/08/02 01:30:50;;;;;;;28.67;25.65;;;21.10;98.20;;;;;;5076294;28;20035;-89
2021/08/02 01:33:30;;;;;;;26.73;24.13;;;21.10;98.30;;;;;;5053123;28;20223;-89
2021/08/02 01:36:02;;;;;;;27.52;24.83;;;21.00;98.40;;;;;;5044639;28;20481;-90
2021/08/02 01:38:29;;;;;;;28.90;26.27;;;21.10;98.50;;;;;;5055154;28;20391;-90
2021/08/02 01:40:56;;;;;;;;;;;21.10;98.60;;;;;;5039852;28;20425;-91
2021/08/02 01:43:22;;;;;;;27.03;24.23;;;21.00;98.00;;;;;;5041405;28;19960;-91
2021/08/02 01:46:14;;;;;;;28.40;24.98;;;21.00;98.40;;;;;;5058800;28;20118;-91
2021/08/02 01:48:51;;;;;;;27.73;24.83;;;21.00;98.50;;;;;;5042167;28;20035;-91
2021/08/02 01:51:37;;;;;;;27.70;24.80;;;21.00;98.70;;;;;;5070292;28;20024;-88
2021/08/02 01:54:15;;;;;;;29.08;25.55;;;21.00;98.40;;;;;;5002558;28;20093;-91
2021/08/02 01:56:58;;;;;;;27.95;25.35;;;21.00;98.60;;;;;;4988032;28;20038;-90
2021/08/02 01:59:28;;;;;;;28.67;25.65;;;21.00;98.50;;;;;;5005431;28;20053;-89
2021/08/02 02:02:08;;;;;;;30.33;27.13;;;21.10;98.60;;;;;;4998791;28;20121;-90
2021/08/02 02:04:59;;;;;;;28.90;25.05;;;21.10;98.70;;;;;;4997073;28;20042;-90
2021/08/02 02:07:28;;;;;;;30.48;27.25;;;21.00;98.60;;;;;;4998452;28;20073;-91
2021/08/02 02:09:57;;;;;;;30.88;25.80;;;21.00;98.60;;;;;;4997553;28;20085;-90
2021/08/02 02:12:23;;;;;;;29.83;26.65;;;21.00;98.60;;;;;;4980882;28;20050;-91
2021/08/02 02:14:52;;;;;;;27.63;25.02;;;21.00;98.60;;;;;;5000123;28;20161;-91
2021/08/02 02:17:21;;;;;;;28.92;25.98;;;21.10;98.50;;;;;;5004567;28;20019;-90
2021/08/02 02:19:50;;;;;;;28.73;25.92;;;21.10;98.50;;;;;;4980974;28;20124;-91
2021/08/02 02:22:17;;;;;;;29.40;25.15;;;21.10;98.40;;;;;;4982418;28;20034;-88
2021/08/02 02:24:43;;;;;;;28.75;25.70;;;21.10;98.40;;;;;;4993659;28;20034;-90
2021/08/02 02:27:10;;;;;;;30.40;27.38;;;21.10;98.40;;;;;;5001809;28;20496;-90
2021/08/02 02:29:37;;;;;;;31.05;26.50;;;21.10;98.20;;;;;;4982103;28;20101;-92
2021/08/02 02:32:05;;;;;;;29.52;26.27;;;21.10;98.30;;;;;;5040309;28;20044;-91
2021/08/02 02:34:32;;;;;;;31.23;27.77;;;21.10;98.20;;;;;;5040976;28;20021;-90
2021/08/02 02:36:58;;;;;;;30.30;27.38;;;21.10;98.20;;;;;;5041526;28;20025;-91
2021/08/02 02:39:26;;;;;;;33.10;27.38;;;21.10;97.90;;;;;;5063343;28;20036;-91
2021/08/02 02:41:53;;;;;;;32.25;28.75;;;21.10;98.10;;;;;;5060734;28;20029;-89
2021/08/02 02:44:21;;;;;;;30.55;27.30;;;21.10;98.20;;;;;;5073857;28;20013;-89
2021/08/02 02:46:48;;;;;;;32.53;29.25;;;21.20;98.30;;;;;;5065389;28;20033;-90
2021/08/02 02:49:15;;;;;;;;;;;21.20;98.00;;;;;;5074672;28;20028;-88
2021/08/02 02:51:43;;;;;;;32.53;29.35;;;21.30;97.70;;;;;;5057179;28;19905;-88
2021/08/02 02:54:09;;;;;;;35.05;30.02;;;21.30;98.10;;;;;;5049012;28;20024;-90
2021/08/02 02:56:36;;;;;;;32.88;28.90;;;21.30;98.10;;;;;;5061266;28;20060;-91
2021/08/02 02:59:03;;;;;;;31.58;28.10;;;21.40;97.90;;;;;;5039225;28;20471;-91
2021/08/02 03:01:37;;;;;;;28.75;26.02;;;21.50;97.70;;;;;;5048861;28;20060;-90
2021/08/02 03:04:05;;;;;;;31.80;28.33;;;21.70;97.40;;;;;;5059727;28;20029;-91
2021/08/02 03:06:32;;;;;;;32.25;26.23;;;21.70;97.00;;;;;;5059762;28;20021;-92
2021/08/02 03:08:59;;;;;;;26.52;22.52;;;21.90;96.50;;;;;;5059081;28;20498;-89
2021/08/02 03:11:26;;;;;;;26.73;23.53;;;21.90;95.70;;;;;;5056890;28;20017;-91
2021/08/02 03:13:53;;;;;;;28.92;24.10;;;21.90;95.60;;;;;;5037672;28;20049;-91
2021/08/02 03:16:25;;;;;;;27.30;23.88;;;21.90;95.10;;;;;;5040838;28;20030;-92
2021/08/02 03:18:52;;;;;;;24.10;21.70;;;22.00;95.00;;;;;;5059368;28;20028;-90
2021/08/02 03:21:19;;;;;;;24.33;20.95;;;22.00;94.50;;;;;;5058959;28;20100;-90
2021/08/02 03:24:20;;;;;;;25.00;22.05;;;21.90;93.20;;;;;;5057616;28;20060;-90
2021/08/02 03:27:10;;;;;;;25.13;21.38;;;21.90;93.50;;;;;;5046214;28;20025;-91
2021/08/02 03:29:45;;;;;;;27.60;21.42;;;22.00;92.90;;;;;;5041362;28;20116;-91
2021/08/02 03:32:14;;;;;;;28.38;22.58;;;22.00;92.50;;;;;;5039440;28;20025;-92
2021/08/02 03:34:41;;;;;;;23.80;19.73;;;22.00;92.30;;;;;;5057729;28;20052;-92
2021/08/02 03:37:09;;;;;;;25.25;21.08;;;22.00;91.70;;;;;;5052230;28;20454;-90
2021/08/02 03:39:37;;;;;;;23.75;18.33;;;22.00;91.70;;;;;;5056953;28;20036;-91
2021/08/02 03:42:03;;;;;;;;;;;22.00;91.60;;;;;;5059938;28;20037;-90
2021/08/02 03:44:31;;;;;;;24.90;18.50;;;22.10;91.80;;;;;;5053067;28;19904;-89
2021/08/02 03:46:57;;;;;;;29.88;20.85;;;22.10;91.70;;;;;;5073033;28;20025;-89
2021/08/02 03:49:23;;;;;;;25.05;18.85;;;22.30;91.50;;;;;;5075742;28;20025;-89
2021/08/02 03:51:56;;;;;;;26.80;18.73;;;22.50;91.40;;;;;;5077836;28;20012;-90
2021/08/02 03:54:24;;;;;;;21.95;19.65;;;22.70;90.90;;;;;;5060497;28;20048;-91
2021/08/02 03:56:51;;;;;;;20.83;18.67;;;22.80;90.60;;;;;;5062415;28;20025;-90
2021/08/02 03:59:17;;;;;;;23.33;19.48;;;22.90;90.20;;;;;;5057802;28;20021;-91
2021/08/02 04:01:44;;;;;;;33.03;20.05;;;22.90;90.00;;;;;;5047734;28;20037;-90
2021/08/02 04:04:10;;;;;;;;;;;22.90;89.70;;;;;;5036373;28;20005;-90
2021/08/02 04:06:37;;;;;;;20.05;17.73;;;22.90;90.00;;;;;;5052892;28;19915;-91
2021/08/02 04:09:04;;;;;;;;;;;22.90;88.60;;;;;;5062064;28;20013;-92
2021/08/02 04:11:31;;;;;;;23.38;15.73;;;23.00;89.40;;;;;;5041013;28;19912;-90
2021/08/02 04:13:56;;;;;;;20.67;15.90;;;23.10;87.50;;;;;;5038755;28;20529;-92
2021/08/02 04:16:23;;;;;;;17.25;13.70;;;23.20;85.90;;;;;;5046746;28;20028;-89
2021/08/02 04:18:49;;;;;;;16.27;14.57;;;23.30;83.90;;;;;;5046751;28;20059;-89
2021/08/02 04:21:15;;;;;;;16.05;14.05;;;23.40;82.50;;;;;;5025880;28;20125;-90
2021/08/02 04:23:41;;;;;;;18.73;13.88;;;23.50;81.60;;;;;;5025747;28;20038;-91
2021/08/02 04:26:09;;;;;;;16.42;13.65;;;23.50;81.00;;;;;;5016476;28;20042;-90
2021/08/02 04:28:35;;;;;;;17.15;11.10;;;23.70;80.80;;;;;;5010019;28;20093;-89
2021/08/02 04:31:01;;;;;;;16.90;12.82;;;23.70;78.00;;;;;;5017204;28;20121;-91
2021/08/02 04:33:26;;;;;;;19.08;13.13;;;23.60;77.90;;;;;;5014563;28;20026;-90
2021/08/02 04:35:52;;;;;;;18.73;13.45;;;23.70;77.40;;;;;;4998099;28;20045;-89
2021/08/02 04:38:18;;;;;;;16.63;12.45;;;23.60;77.10;;;;;;5014896;28;20033;-90
2021/08/02 04:40:44;;;;;;;17.83;12.45;;;23.80;76.80;;;;;;5000976;28;20026;-91
2021/08/02 04:43:10;;;;;;;15.75;12.75;;;23.90;76.50;;;;;;5021141;28;20053;-90
2021/08/02 04:45:36;;;;;;;12.77;10.85;;;24.00;76.50;;;;;;5016649;28;20030;-90
2021/08/02 04:48:02;;;;;;;22.80;12.68;;;24.20;75.50;;;;;;5018332;28;20042;-88
2021/08/02 04:50:27;;;;;;;14.73;11.73;;;24.30;75.10;;;;;;5003796;28;20157;-91
2021/08/02 04:52:53;;;;;;;16.77;12.93;;;24.50;75.40;;;;;;5048296;28;20033;-91
2021/08/02 04:55:19;;;;;;;14.13;12.80;;;24.60;74.90;;;;;;5057157;28;20047;-88
2021/08/02 04:57:45;;;;;;;17.65;12.82;;;24.70;74.60;;;;;;5054229;28;20088;-88
2021/08/02 05:00:11;;;;;;;20.92;13.23;;;24.80;75.50;;;;;;5066816;28;20048;-89
2021/08/02 05:02:38;;;;;;;14.87;13.43;;;;;;;;;;5056261;28;20029;-90
2021/08/02 05:05:04;;;;;;;15.38;12.85;;;;;;;;;;5057822;28;20017;-90
2021/08/02 05:07:30;;;;;;;13.37;11.83;;;;;;;;;;5058813;28;20072;-91
2021/08/02 05:09:59;;;;;;;18.15;12.23;;;;;;;;;;5059246;28;20040;-90
2021/08/02 05:12:25;;;;;;;17.17;12.32;;;25.30;73.60;;;;;;5041030;28;20025;-92
2021/08/02 05:14:51;;;;;;;12.50;11.10;;;28.90;62.70;;;;;;5059854;28;20027;-91
2021/08/02 05:17:17;;;;;;;12.05;10.20;;;29.10;61.50;;;;;;5060159;28;20032;-90
2021/08/02 05:19:43;;;;;;;14.38;11.40;;;29.30;60.70;;;;;;5038147;28;20032;-91
2021/08/02 05:22:09;;;;;;;20.40;12.82;;;29.10;59.90;;;;;;5035247;28;20043;-90
2021/08/02 05:24:35;;;;;;;14.35;10.82;;;28.50;61.30;;;;;;5041094;28;20499;-92
2021/08/02 05:27:01;;;;;;;13.15;11.35;;;27.90;63.20;;;;;;5041427;28;20021;-92
2021/08/02 05:29:27;;;;;;;12.95;11.55;;;27.50;64.40;;;;;;5041247;28;20032;-90
2021/08/02 05:31:53;;;;;;;19.50;13.60;;;27.40;65.40;;;;;;5041518;28;20033;-90
2021/08/02 05:34:19;;;;;;;14.23;10.98;;;27.80;65.30;;;;;;5060423;28;20017;-88
2021/08/02 05:36:45;;;;;;;14.00;11.27;;;28.40;64.40;;;;;;5059781;28;20032;-90
2021/08/02 05:39:11;;;;;;;12.75;11.52;;;29.50;61.80;;;;;;5043494;28;20009;-88
2021/08/02 05:41:37;;;;;;;13.32;10.68;;;30.60;59.00;;;;;;5069746;28;20034;-92
2021/08/02 05:44:05;;;;;;;12.07;10.73;;;31.40;57.50;;;;;;5044483;28;20033;-91
2021/08/02 05:46:31;;;;;;;13.02;10.05;;;32.40;55.40;;;;;;5065197;28;20074;-89
2021/08/02 05:48:57;;;;;;;19.63;10.63;;;32.90;53.20;;;;;;5041959;28;20052;-90
2021/08/02 05:51:23;;;;;;;17.00;10.83;;;33.20;52.80;;;;;;5055073;28;20710;-91
2021/08/02 05:53:57;;;;;;;13.52;9.48;;;33.40;52.40;;;;;;5060014;28;20048;-93
2021/08/02 05:56:23;;;;;;;10.75;9.63;;;34.10;51.00;;;;;;5059716;28;20040;-91
2021/08/02 05:58:49;;;;;;;11.70;10.50;;;34.70;49.90;;;;;;5061177;28;20021;-91
2021/08/02 06:01:16;;;;;;;15.93;10.23;;;34.20;49.50;;;;;;5059336;28;20269;-89
2021/08/02 06:03:41;;;;;;;14.10;10.40;;;34.30;49.70;;;;;;5059563;28;20024;-90
2021/08/02 06:06:08;;;;;;;11.53;9.37;;;34.50;49.20;;;;;;5043150;28;20040;-92
2021/08/02 06:08:37;;;;;;;15.45;13.80;;;;;;;;;;5060411;28;20036;-89
2021/08/02 06:11:03;;;;;;;11.15;9.65;;;34.90;49.10;;;;;;5044770;28;20049;-90
2021/08/02 06:13:29;;;;;;;13.53;9.70;;;35.30;48.00;;;;;;5054907;28;20065;-91
2021/08/02 06:15:56;;;;;;;11.23;9.17;;;35.20;47.90;;;;;;5074081;28;20379;-91
2021/08/02 06:18:21;;;;;;;;;;;36.10;47.10;;;;;;5072305;28;20055;-93
2021/08/02 06:20:47;;;;;;;12.20;9.40;;;35.80;47.30;;;;;;5060044;28;19959;-91
2021/08/02 06:23:13;;;;;;;10.23;8.80;;;35.60;47.10;;;;;;5062266;28;20072;-92
2021/08/02 06:25:39;;;;;;;12.32;8.82;;;36.50;46.10;;;;;;5064516;28;20048;-90
2021/08/02 06:28:05;;;;;;;9.03;8.10;;;;;;;;;;5068420;28;20080;-91
2021/08/02 06:30:31;;;;;;;12.90;8.75;;;35.20;44.60;;;;;;5053275;28;20320;-87
2021/08/02 06:32:57;;;;;;;10.30;8.73;;;33.80;48.10;;;;;;5054422;28;20105;-90
2021/08/02 06:35:23;;;;;;;8.83;8.03;;;34.00;48.30;;;;;;5049626;28;20018;-87
2021/08/02 06:37:49;;;;;;;11.07;9.00;;;34.10;48.60;;;;;;5061194;28;20029;-92
2021/08/02 06:40:16;;;;;;;10.87;8.53;;;34.20;48.30;;;;;;5047708;28;20079;-92
2021/08/02 06:42:42;;;;;;;10.10;8.80;;;33.70;48.50;;;;;;5066124;28;20040;-90
2021/08/02 06:45:10;;;;;;;12.15;9.55;;;32.20;50.60;;;;;;5066465;28;20086;-89
2021/08/02 06:47:36;;;;;;;10.60;8.98;;;31.20;53.40;;;;;;5044830;28;20557;-90
2021/08/02 06:50:02;;;;;;;9.83;8.83;;;31.00;54.20;;;;;;5063040;28;20013;-90
2021/08/02 06:52:28;;;;;;;12.30;9.65;;;30.40;55.50;;;;;;5045239;28;20274;-93
2021/08/02 06:54:54;;;;;;;13.00;9.88;;;29.60;57.50;;;;;;5044930;28;20025;-88
2021/08/02 06:57:20;;;;;;;11.60;9.63;;;29.30;58.80;;;;;;5044304;28;20030;-93
2021/08/02 06:59:46;;;;;;;12.30;10.05;;;28.90;60.20;;;;;;5053181;28;20048;-92
2021/08/02 07:02:12;;;;;;;12.27;10.48;;;28.30;62.00;;;;;;5063676;28;20033;-88
2021/08/02 07:04:38;;;;;;;11.43;10.32;;;28.00;63.60;;;;;;5071079;28;20032;-91
2021/08/02 07:07:04;;;;;;;12.02;10.65;;;27.70;64.70;;;;;;5049273;28;20488;-93
2021/08/02 07:09:30;;;;;;;14.45;12.27;;;27.50;65.40;;;;;;5042677;28;20030;-92
2021/08/02 07:11:56;;;;;;;15.02;11.00;;;27.40;66.40;;;;;;5064260;28;20059;-91
2021/08/02 07:14:22;;;;;;;16.02;12.00;;;27.10;67.00;;;;;;5071237;28;20438;-93
2021/08/02 07:16:48;;;;;;;13.52;12.10;;;27.00;67.70;;;;;;5042542;28;20036;-92
2021/08/02 07:19:14;;;;;;;17.38;12.23;;;26.90;67.90;;;;;;5040252;28;20025;-92
2021/08/02 07:21:40;;;;;;;13.88;11.73;;;26.70;68.40;;;;;;5059616;28;20029;-91
2021/08/02 07:24:06;;;;;;;15.10;12.07;;;26.40;69.40;;;;;;5059868;28;20214;-91
2021/08/02 07:26:31;;;;;;;21.42;12.65;;;26.20;70.70;;;;;;5060353;28;20025;-90
2021/08/02 07:29:02;;;;;;;13.18;11.20;;;26.00;71.90;;;;;;5056979;28;20045;-91
2021/08/02 07:31:28;;;;;;;15.13;12.75;;;25.60;73.70;;;;;;5037961;28;20025;-90
2021/08/02 07:33:54;;;;;;;15.25;12.63;;;25.20;76.20;;;;;;5047899;28;20017;-92
2021/08/02 07:36:21;;;;;;;16.83;13.93;;;25.10;77.30;;;;;;5057760;28;20021;-91
2021/08/02 07:38:48;;;;;;;13.98;12.48;;;24.90;78.30;;;;;;5058126;28;20466;-93
2021/08/02 07:41:15;;;;;;;15.35;13.88;;;24.60;79.80;;;;;;5057973;28;20029;-92
2021/08/02 07:43:41;;;;;;;16.80;15.18;;;24.30;81.50;;;;;;5057524;28;20064;-90
2021/08/02 07:46:07;;;;;;;17.83;14.05;;;24.30;83.10;;;;;;5057555;28;20040;-91
2021/08/02 07:48:33;;;;;;;18.58;16.23;;;24.10;84.50;;;;;;5042059;28;20029;-93
2021/08/02 07:50:59;;;;;;;18.50;16.80;;;23.80;85.50;;;;;;5057897;28;20059;-90
2021/08/02 07:53:25;;;;;;;19.95;17.98;;;23.40;88.30;;;;;;5055379;28;20021;-91
2021/08/02 07:55:51;;;;;;;19.45;17.45;;;23.20;90.30;;;;;;5039382;28;20033;-91
2021/08/02 07:58:17;;;;;;;21.65;19.25;;;22.90;90.80;;;;;;5056791;28;20080;-91
2021/08/02 08:00:45;;;;;;;20.88;18.75;;;22.80;91.90;;;;;;5057583;28;20419;-93
2021/08/02 08:03:12;;;;;;;21.98;19.73;;;22.60;92.20;;;;;;5056677;28;20044;-90
2021/08/02 08:05:38;;;;;;;;;;;22.50;92.90;;;;;;5039778;28;20079;-90
2021/08/02 08:08:04;;;;;;;22.38;19.88;;;22.50;92.10;;;;;;5058143;28;19904;-92
2021/08/02 08:10:40;;;;;;;21.40;17.55;;;22.30;93.70;;;;;;5056875;28;20430;-92
2021/08/02 08:13:07;;;;;;;22.27;20.08;;;22.30;93.60;;;;;;5043484;28;20040;-90
2021/08/02 08:15:33;;;;;;;24.35;22.17;;;22.30;94.20;;;;;;5038212;28;20053;-89
2021/08/02 08:17:59;;;;;;;22.85;20.48;;;22.40;94.70;;;;;;5038275;28;20032;-89
2021/08/02 08:20:25;;;;;;;23.15;20.33;;;22.50;93.90;;;;;;5056735;28;20032;-89
2021/08/02 08:22:51;;;;;;;24.65;22.05;;;22.40;94.30;;;;;;5058617;28;20035;-88
2021/08/02 08:25:18;;;;;;;31.80;25.60;;;22.50;94.50;;;;;;5056287;28;20025;-90
2021/08/02 08:27:44;;;;;;;24.70;20.90;;;22.70;95.00;;;;;;5056081;28;20088;-91
2021/08/02 08:30:11;;;;;;;27.20;23.40;;;22.80;93.80;;;;;;5054754;28;20497;-90
2021/08/02 08:32:37;;;;;;;29.42;25.73;;;22.80;93.90;;;;;;5056696;28;20036;-89
2021/08/02 08:35:05;;;;;;;29.85;22.85;;;22.90;94.40;;;;;;5058255;28;20066;-89
2021/08/02 08:37:31;;;;;;;24.98;22.27;;;23.10;94.30;;;;;;5044547;28;20029;-89
2021/08/02 08:39:57;;;;;;;23.00;19.92;;;23.30;94.10;;;;;;5072785;28;20034;-89
2021/08/02 08:42:23;;;;;;;22.50;18.25;;;24.30;93.00;;;;;;5075764;28;20033;-91
2021/08/02 08:44:49;;;;;;;19.10;15.95;;;26.10;90.60;;;;;;5050003;28;20074;-90
2021/08/02 08:47:14;;;;;;;20.52;16.60;;;28.10;81.50;;;;;;5059856;28;20021;-91
2021/08/02 08:49:42;;;;;;;15.73;14.10;;;29.10;75.40;;;;;;5061319;28;20021;-91
2021/08/02 08:52:08;;;;;;;20.50;15.40;;;30.00;70.80;;;;;;5057674;28;20150;-91
2021/08/02 08:54:36;;;;;;;19.88;14.77;;;30.60;66.30;;;;;;5057215;28;20375;-91
2021/08/02 08:57:03;;;;;;;20.02;14.60;;;30.70;65.30;;;;;;5058337;28;20029;-92
2021/08/02 08:59:32;;;;;;;17.83;13.48;;;31.10;63.40;;;;;;5048541;28;20024;-88
2021/08/02 09:02:02;;;;;;;18.65;14.00;;;31.60;63.30;;;;;;5060737;28;20037;-90
2021/08/02 09:04:32;;;;;;;18.35;11.25;;;32.10;60.90;;;;;;5057159;28;20075;-92
2021/08/02 09:07:00;;;;;;;18.38;12.27;;;33.10;58.00;;;;;;5056638;28;20382;-91
2021/08/02 09:09:31;;;;;;;12.43;10.90;;;34.20;55.90;;;;;;5057358;28;20021;-88
2021/08/02 09:12:18;;;;;;;16.58;11.40;;;35.40;52.60;;;;;;5060040;28;20107;-91
2021/08/02 09:14:53;;;;;;;14.55;11.35;;;37.00;50.60;;;;;;5029429;28;20101;-90
2021/08/02 09:17:38;;;;;;;13.50;11.40;;;38.10;48.10;;;;;;5063080;28;20021;-92
2021/08/02 09:20:18;;;;;;;12.73;10.50;;;38.10;47.00;;;;;;5023112;28;20052;-96
2021/08/02 09:22:44;;;;;;;15.75;10.57;;;36.90;47.10;;;;;;5052797;28;20025;-93
2021/08/02 09:25:21;;;;;;;10.37;9.33;;;34.90;48.30;;;;;;5055656;28;20551;-91
2021/08/02 09:27:49;;;;;;;15.73;11.68;;;33.70;51.20;;;;;;5038191;28;20278;-92
2021/08/02 09:30:26;;;;;;;13.25;11.32;;;33.20;53.50;;;;;;5042069;28;20021;-92
2021/08/02 09:33:07;;;;;;;14.88;12.48;;;32.60;54.00;;;;;;5038054;28;20100;-91
2021/08/02 09:35:42;;;;;;;15.60;13.50;;;31.80;56.80;;;;;;5057857;28;20032;-91
2021/08/02 09:38:13;;;;;;;15.88;13.70;;;32.10;57.80;;;;;;5056803;28;20024;-91
2021/08/02 09:40:50;;;;;;;15.98;13.13;;;33.40;56.50;;;;;;5038060;28;20390;-92
2021/08/02 09:43:22;;;;;;;12.93;11.68;;;34.10;54.60;;;;;;5055506;28;20029;-92
2021/08/02 09:45:49;;;;;;;12.20;9.80;;;35.20;52.50;;;;;;5035672;28;20029;-90
2021/08/02 09:48:17;;;;;;;12.70;9.65;;;36.10;48.40;;;;;;5054222;28;20056;-91
2021/08/02 09:50:45;;;;;;;15.15;10.40;;;36.90;48.70;;;;;;5041775;28;20430;-92
2021/08/02 09:53:16;;;;;;;12.20;9.00;;;37.80;45.50;;;;;;5066877;28;20143;-91
2021/08/02 09:55:45;;;;;;;9.93;8.10;;;38.90;44.20;;;;;;5053112;28;20394;-91
2021/08/02 09:58:18;;;;;;;16.83;9.60;;;39.90;42.20;;;;;;5064589;28;20390;-92
2021/08/02 10:00:45;;;;;;;12.45;8.27;;;40.90;41.50;;;;;;5063936;28;20017;-91
2021/08/02 10:03:16;;;;;;;11.43;7.65;;;41.40;39.90;;;;;;5066049;28;20040;-92
2021/08/02 10:05:43;;;;;;;13.43;8.52;;;41.80;39.10;;;;;;5051603;28;20112;-92
2021/08/02 10:08:09;;;;;;;10.95;7.35;;;41.60;38.40;;;;;;5053866;28;20033;-91
2021/08/02 10:10:39;;;;;;;12.00;9.23;;;41.00;38.30;;;;;;5069873;28;20103;-91
2021/08/02 10:13:05;;;;;;;15.13;10.07;;;41.10;38.70;;;;;;5050830;28;20163;-89
2021/08/02 10:15:32;;;;;;;14.00;8.52;;;41.40;38.90;;;;;;5063566;28;20017;-90
2021/08/02 10:18:01;;;;;;;11.85;7.82;;;40.80;38.40;;;;;;5039218;28;20028;-91
2021/08/02 10:20:33;;;;;;;11.70;8.88;;;41.10;38.90;;;;;;5053121;28;20051;-92
2021/08/02 10:23:00;;;;;;;13.02;9.43;;;40.60;38.00;;;;;;5055356;28;20081;-91
2021/08/02 10:25:35;;;;;;;15.88;10.88;;;39.10;39.70;;;;;;5049306;28;20048;-92
2021/08/02 10:28:10;;;;;;;18.75;11.27;;;37.50;42.50;;;;;;5060712;28;20052;-92
2021/08/02 10:30:37;;;;;;;11.63;9.52;;;36.30;44.80;;;;;;5047412;28;20088;-92
2021/08/02 10:33:03;;;;;;;16.63;10.43;;;35.10;46.60;;;;;;5058444;28;20525;-91
2021/08/02 10:35:41;;;;;;;10.98;9.10;;;33.70;48.70;;;;;;5050273;28;20443;-92
2021/08/02 10:38:18;;;;;;;10.07;8.23;;;32.90;49.40;;;;;;5062086;28;20473;-92
2021/08/02 10:40:57;;;;;;;10.50;9.40;;;32.20;50.20;;;;;;5068591;28;20036;-90
2021/08/02 10:43:35;;;;;;;9.85;7.32;;;31.60;51.10;;;;;;5060103;28;20028;-92
2021/08/02 10:46:17;;;;;;;10.20;8.30;;;31.20;51.20;;;;;;5071259;28;20023;-91
2021/08/02 10:48:44;;;;;;;11.38;7.82;;;30.60;52.50;;;;;;5050369;28;20374;-91
2021/08/02 10:51:13;;;;;;;;;;;30.30;54.00;;;;;;5062660;28;20094;-92
2021/08/02 10:53:41;;;;;;;11.60;9.40;;;29.90;54.20;;;;;;5061310;28;19988;-92
2021/08/02 10:56:07;;;;;;;12.45;9.05;;;29.90;56.00;;;;;;5062673;28;20021;-92
2021/08/02 10:58:40;;;;;;;11.70;8.70;;;29.90;56.60;;;;;;5047198;28;20039;-92
2021/08/02 11:01:11;;;;;;;12.23;8.80;;;29.90;56.90;;;;;;5070675;28;20033;-92
2021/08/02 11:03:40;;;;;;;9.05;7.95;;;29.70;57.10;;;;;;5074721;28;20017;-90
2021/08/02 11:06:14;;;;;;;11.32;9.20;;;29.60;57.40;;;;;;5079065;28;20013;-89
2021/08/02 11:08:54;;;;;;;10.30;9.15;;;29.60;58.40;;;;;;5059728;28;20033;-90
2021/08/02 11:11:29;;;;;;;14.55;9.13;;;29.60;57.80;;;;;;5068980;28;20020;-92
2021/08/02 11:14:10;;;;;;;10.77;9.32;;;29.30;58.60;;;;;;5050699;28;20045;-91
2021/08/02 11:16:47;;;;;;;9.93;8.93;;;29.00;59.80;;;;;;5044646;28;20033;-91
2021/08/02 11:19:25;;;;;;;9.73;8.82;;;28.70;60.20;;;;;;5071948;28;20025;-91
2021/08/02 11:22:05;;;;;;;10.55;9.45;;;28.50;61.10;;;;;;5047981;28;20039;-90
2021/08/02 11:24:39;;;;;;;12.10;8.68;;;28.30;61.80;;;;;;5060948;28;21034;-90
2021/08/02 11:27:08;;;;;;;12.32;9.25;;;28.30;62.60;;;;;;5040829;28;20021;-89
2021/08/02 11:29:39;;;;;;;10.63;9.45;;;28.40;62.70;;;;;;5057657;28;20021;-90
2021/08/02 11:32:11;;;;;;;10.65;8.68;;;28.30;63.10;;;;;;5041696;28;20029;-90
2021/08/02 11:34:40;;;;;;;11.65;9.75;;;28.40;63.40;;;;;;5039423;28;20133;-92
2021/08/02 11:37:10;;;;;;;15.57;9.98;;;28.40;63.30;;;;;;5061793;28;20036;-90
2021/08/02 11:39:39;;;;;;;11.80;8.75;;;28.60;63.50;;;;;;5057301;28;20435;-90
2021/08/02 11:42:10;;;;;;;12.65;9.23;;;28.80;63.00;;;;;;5060806;28;20032;-90
2021/08/02 11:44:43;;;;;;;10.05;8.65;;;28.90;62.50;;;;;;5062499;28;20091;-88
2021/08/02 11:47:17;;;;;;;14.05;9.77;;;29.00;62.20;;;;;;5057464;28;20541;-91
2021/08/02 11:49:44;;;;;;;13.35;10.45;;;28.90;61.90;;;;;;5041356;28;20069;-90
2021/08/02 11:52:13;;;;;;;13.18;9.30;;;29.00;62.60;;;;;;5059956;28;20025;-91
2021/08/02 11:54:47;;;;;;;16.52;10.48;;;29.00;62.20;;;;;;5057492;28;20029;-93
2021/08/02 11:57:20;;;;;;;10.80;9.68;;;28.90;62.70;;;;;;5041361;28;20029;-93
2021/08/02 11:59:59;;;;;;;15.85;10.68;;;28.80;63.00;;;;;;5058261;28;20025;-92
2021/08/02 12:02:40;;;;;;;16.58;10.23;;;28.60;63.10;;;;;;5057565;28;20051;-92
2021/08/02 12:05:09;;;;;;;12.50;10.23;;;28.40;63.90;;;;;;5057321;28;20077;-91
2021/08/02 12:07:35;;;;;;;13.20;9.90;;;28.30;64.20;;;;;;5041154;28;20041;-90
2021/08/02 12:10:18;;;;;;;17.65;10.52;;;28.20;64.60;;;;;;5057180;28;20071;-91
2021/08/02 12:12:59;;;;;;;13.30;10.45;;;28.20;64.90;;;;;;5038626;28;20394;-91
2021/08/02 12:15:25;;;;;;;10.63;9.25;;;28.30;64.50;;;;;;5038895;28;20154;-90
2021/08/02 12:17:53;;;;;;;13.93;10.37;;;28.40;64.30;;;;;;5056474;28;20087;-93
2021/08/02 12:20:33;;;;;;;17.88;11.07;;;28.40;64.30;;;;;;5057907;28;20009;-92
2021/08/02 12:23:02;;;;;;;15.88;10.55;;;28.50;64.40;;;;;;5043110;28;20030;-92
2021/08/02 12:25:40;;;;;;;12.52;10.07;;;28.60;64.50;;;;;;5057407;28;20051;-92
2021/08/02 12:28:06;;;;;;;22.45;11.18;;;28.90;64.50;;;;;;5055932;28;20060;-92
2021/08/02 12:30:34;;;;;;;15.82;11.30;;;29.00;64.20;;;;;;5056465;28;20021;-90
2021/08/02 12:33:00;;;;;;;16.55;10.70;;;29.30;64.00;;;;;;5039497;28;20028;-90
2021/08/02 12:35:26;;;;;;;14.45;10.70;;;29.40;63.50;;;;;;5042028;28;20127;-91
2021/08/02 12:37:53;;;;;;;17.48;10.48;;;29.50;62.90;;;;;;5059113;28;20158;-91
2021/08/02 12:40:19;;;;;;;12.68;10.70;;;29.40;62.80;;;;;;5021118;28;20017;-93
2021/08/02 12:42:48;;;;;;;12.80;10.43;;;29.50;62.80;;;;;;5054398;28;20040;-91